sensor_id;sensor_type;location;lat;lon;timestamp;P1;durP1;ratioP1;P2;durP2;ratioP2
74503;SDS011;62988;55.776;37.544;2024-03-23T00:54:58;28.13;;;12.52;;
74503;SDS011;62988;55.776;37.544;2024-03-23T00:57:23;25.40;;;11.57;;
74503;SDS011;62988;55.776;37.544;2024-03-23T00:59:48;24.37;;;11.43;;
74503;SDS011;62988;55.776;37.544;2024-03-23T01:02:14;33.27;;;12.90;;
74503;SDS011;62988;55.776;37.544;2024-03-23T01:04:39;24.13;;;10.50;;
74503;SDS011;62988;55.776;37.544;2024-03-23T01:07:04;23.10;;;11.20;;
74503;SDS011;62988;55.776;37.544;2024-03-23T01:09:29;22.33;;;9.93;;
74503;SDS011;62988;55.776;37.544;2024-03-23T01:11:55;28.87;;;11.93;;
74503;SDS011;62988;55.776;37.544;2024-03-23T01:14:20;26.73;;;11.20;;
74503;SDS011;62988;55.776;37.544;2024-03-23T01:16:45;25.23;;;11.67;;
74503;SDS011;62988;55.776;37.544;2024-03-23T01:19:11;27.45;;;13.15;;
74503;SDS011;62988;55.776;37.544;2024-03-23T01:21:36;22.57;;;11.03;;
74503;SDS011;62988;55.776;37.544;2024-03-23T01:24:02;26.70;;;11.20;;
74503;SDS011;62988;55.776;37.544;2024-03-23T01:26:27;24.20;;;11.90;;
74503;SDS011;62988;55.776;37.544;2024-03-23T01:28:52;29.17;;;11.90;;
74503;SDS011;62988;55.776;37.544;2024-03-23T01:31:18;23.60;;;10.60;;
74503;SDS011;62988;55.776;37.544;2024-03-23T01:33:43;22.83;;;10.60;;
74503;SDS011;62988;55.776;37.544;2024-03-23T01:36:08;28.27;;;12.43;;
74503;SDS011;62988;55.776;37.544;2024-03-23T01:38:33;31.40;;;11.80;;
74503;SDS011;62988;55.776;37.544;2024-03-23T01:40:59;29.87;;;12.60;;
74503;SDS011;62988;55.776;37.544;2024-03-23T01:43:24;24.40;;;11.17;;
74503;SDS011;62988;55.776;37.544;2024-03-23T01:45:50;23.03;;;10.37;;
74503;SDS011;62988;55.776;37.544;2024-03-23T01:48:15;27.02;;;11.90;;
74503;SDS011;62988;55.776;37.544;2024-03-23T01:50:41;28.00;;;10.87;;
74503;SDS011;62988;55.776;37.544;2024-03-23T01:53:06;29.70;;;11.88;;
74503;SDS011;62988;55.776;37.544;2024-03-23T01:55:32;30.73;;;12.82;;
74503;SDS011;62988;55.776;37.544;2024-03-23T01:57:57;27.88;;;11.68;;
74503;SDS011;62988;55.776;37.544;2024-03-23T02:00:23;26.87;;;12.57;;
74503;SDS011;62988;55.776;37.544;2024-03-23T02:02:48;26.33;;;12.10;;
74503;SDS011;62988;55.776;37.544;2024-03-23T02:05:14;34.17;;;14.60;;
74503;SDS011;62988;55.776;37.544;2024-03-23T02:07:39;25.27;;;12.30;;
74503;SDS011;62988;55.776;37.544;2024-03-23T02:10:08;27.25;;;11.55;;
74503;SDS011;62988;55.776;37.544;2024-03-23T02:12:34;28.52;;;12.50;;
74503;SDS011;62988;55.776;37.544;2024-03-23T02:15:00;27.40;;;12.35;;
74503;SDS011;62988;55.776;37.544;2024-03-23T02:17:25;24.40;;;12.13;;
74503;SDS011;62988;55.776;37.544;2024-03-23T02:19:51;26.30;;;10.97;;
74503;SDS011;62988;55.776;37.544;2024-03-23T02:22:16;29.33;;;13.95;;
74503;SDS011;62988;55.776;37.544;2024-03-23T02:24:42;27.97;;;11.63;;
74503;SDS011;62988;55.776;37.544;2024-03-23T02:27:07;29.08;;;12.68;;
74503;SDS011;62988;55.776;37.544;2024-03-23T02:29:33;28.52;;;12.63;;
74503;SDS011;62988;55.776;37.544;2024-03-23T02:31:58;22.30;;;10.30;;
74503;SDS011;62988;55.776;37.544;2024-03-23T02:34:24;26.65;;;11.80;;
74503;SDS011;62988;55.776;37.544;2024-03-23T02:36:49;28.25;;;11.35;;
74503;SDS011;62988;55.776;37.544;2024-03-23T02:39:14;23.60;;;10.77;;
74503;SDS011;62988;55.776;37.544;2024-03-23T02:41:40;28.03;;;12.63;;
74503;SDS011;62988;55.776;37.544;2024-03-23T02:44:05;24.63;;;12.87;;
74503;SDS011;62988;55.776;37.544;2024-03-23T02:46:30;28.30;;;12.30;;
74503;SDS011;62988;55.776;37.544;2024-03-23T02:48:56;28.63;;;12.63;;
74503;SDS011;62988;55.776;37.544;2024-03-23T02:51:21;23.02;;;10.35;;
74503;SDS011;62988;55.776;37.544;2024-03-23T02:53:47;22.17;;;9.43;;
74503;SDS011;62988;55.776;37.544;2024-03-23T02:56:12;21.83;;;9.30;;
74503;SDS011;62988;55.776;37.544;2024-03-23T02:58:41;27.33;;;10.90;;
74503;SDS011;62988;55.776;37.544;2024-03-23T03:01:06;23.85;;;12.25;;
74503;SDS011;62988;55.776;37.544;2024-03-23T03:03:31;22.60;;;10.70;;
74503;SDS011;62988;55.776;37.544;2024-03-23T03:05:57;27.53;;;12.37;;
74503;SDS011;62988;55.776;37.544;2024-03-23T03:08:22;27.03;;;11.20;;
74503;SDS011;62988;55.776;37.544;2024-03-23T03:10:47;24.87;;;9.63;;
74503;SDS011;62988;55.776;37.544;2024-03-23T03:13:12;23.67;;;10.53;;
74503;SDS011;62988;55.776;37.544;2024-03-23T03:15:39;28.67;;;11.33;;
74503;SDS011;62988;55.776;37.544;2024-03-23T03:18:04;17.13;;;8.63;;
74503;SDS011;62988;55.776;37.544;2024-03-23T03:20:30;26.00;;;12.40;;
74503;SDS011;62988;55.776;37.544;2024-03-23T03:22:56;23.08;;;10.80;;
74503;SDS011;62988;55.776;37.544;2024-03-23T03:25:22;21.63;;;9.57;;
74503;SDS011;62988;55.776;37.544;2024-03-23T03:27:47;26.13;;;11.90;;
74503;SDS011;62988;55.776;37.544;2024-03-23T03:30:12;27.43;;;11.00;;
74503;SDS011;62988;55.776;37.544;2024-03-23T03:32:38;28.05;;;11.88;;
74503;SDS011;62988;55.776;37.544;2024-03-23T03:35:03;21.80;;;9.83;;
74503;SDS011;62988;55.776;37.544;2024-03-23T03:37:29;27.00;;;12.38;;
74503;SDS011;62988;55.776;37.544;2024-03-23T03:39:55;24.67;;;9.73;;
74503;SDS011;62988;55.776;37.544;2024-03-23T03:42:20;32.30;;;12.67;;
74503;SDS011;62988;55.776;37.544;2024-03-23T03:44:45;24.83;;;10.07;;
74503;SDS011;62988;55.776;37.544;2024-03-23T03:47:11;28.67;;;12.17;;
74503;SDS011;62988;55.776;37.544;2024-03-23T03:49:36;21.77;;;9.97;;
74503;SDS011;62988;55.776;37.544;2024-03-23T03:52:01;21.23;;;9.80;;
74503;SDS011;62988;55.776;37.544;2024-03-23T03:54:27;27.33;;;11.80;;
74503;SDS011;62988;55.776;37.544;2024-03-23T03:56:52;23.57;;;10.40;;
74503;SDS011;62988;55.776;37.544;2024-03-23T03:59:18;24.13;;;9.15;;
74503;SDS011;62988;55.776;37.544;2024-03-23T04:01:43;25.03;;;8.93;;
74503;SDS011;62988;55.776;37.544;2024-03-23T04:04:08;26.40;;;12.07;;
74503;SDS011;62988;55.776;37.544;2024-03-23T04:06:34;21.63;;;8.83;;
74503;SDS011;62988;55.776;37.544;2024-03-23T04:08:59;19.77;;;10.10;;
74503;SDS011;62988;55.776;37.544;2024-03-23T04:11:24;19.27;;;9.17;;
74503;SDS011;62988;55.776;37.544;2024-03-23T04:13:50;27.33;;;11.10;;
74503;SDS011;62988;55.776;37.544;2024-03-23T04:16:28;26.27;;;10.10;;
74503;SDS011;62988;55.776;37.544;2024-03-23T04:18:53;20.00;;;10.63;;
74503;SDS011;62988;55.776;37.544;2024-03-23T04:21:19;23.35;;;11.90;;
74503;SDS011;62988;55.776;37.544;2024-03-23T04:23:44;21.53;;;11.00;;
74503;SDS011;62988;55.776;37.544;2024-03-23T04:26:09;26.53;;;11.27;;
74503;SDS011;62988;55.776;37.544;2024-03-23T04:28:35;16.50;;;8.67;;
74503;SDS011;62988;55.776;37.544;2024-03-23T04:31:03;22.07;;;10.47;;
74503;SDS011;62988;55.776;37.544;2024-03-23T04:33:29;22.80;;;10.85;;
74503;SDS011;62988;55.776;37.544;2024-03-23T04:35:54;16.63;;;7.30;;
74503;SDS011;62988;55.776;37.544;2024-03-23T04:38:19;19.50;;;8.77;;
74503;SDS011;62988;55.776;37.544;2024-03-23T04:40:45;19.17;;;7.50;;
74503;SDS011;62988;55.776;37.544;2024-03-23T04:43:10;18.93;;;10.20;;
74503;SDS011;62988;55.776;37.544;2024-03-23T04:45:35;24.73;;;11.33;;
74503;SDS011;62988;55.776;37.544;2024-03-23T04:48:01;18.50;;;9.23;;
74503;SDS011;62988;55.776;37.544;2024-03-23T04:50:26;27.40;;;11.07;;
74503;SDS011;62988;55.776;37.544;2024-03-23T04:52:51;24.47;;;10.40;;
74503;SDS011;62988;55.776;37.544;2024-03-23T04:55:16;24.13;;;11.27;;
74503;SDS011;62988;55.776;37.544;2024-03-23T04:57:42;19.95;;;9.27;;
74503;SDS011;62988;55.776;37.544;2024-03-23T05:00:07;22.37;;;10.30;;
74503;SDS011;62988;55.776;37.544;2024-03-23T05:02:42;16.75;;;8.05;;
74503;SDS011;62988;55.776;37.544;2024-03-23T05:05:08;21.92;;;9.45;;
74503;SDS011;62988;55.776;37.544;2024-03-23T05:07:33;15.50;;;7.43;;
74503;SDS011;62988;55.776;37.544;2024-03-23T05:09:58;20.67;;;10.20;;
74503;SDS011;62988;55.776;37.544;2024-03-23T05:12:23;24.07;;;10.53;;
74503;SDS011;62988;55.776;37.544;2024-03-23T05:14:49;15.37;;;8.23;;
74503;SDS011;62988;55.776;37.544;2024-03-23T05:17:15;20.75;;;9.80;;
74503;SDS011;62988;55.776;37.544;2024-03-23T05:19:40;26.93;;;11.43;;
74503;SDS011;62988;55.776;37.544;2024-03-23T05:22:05;20.13;;;9.83;;
74503;SDS011;62988;55.776;37.544;2024-03-23T05:24:31;19.65;;;8.73;;
74503;SDS011;62988;55.776;37.544;2024-03-23T05:26:56;20.75;;;9.38;;
74503;SDS011;62988;55.776;37.544;2024-03-23T05:29:24;26.60;;;9.85;;
74503;SDS011;62988;55.776;37.544;2024-03-23T05:31:51;18.13;;;8.35;;
74503;SDS011;62988;55.776;37.544;2024-03-23T05:34:16;17.95;;;8.35;;
74503;SDS011;62988;55.776;37.544;2024-03-23T05:36:42;16.40;;;7.57;;
74503;SDS011;62988;55.776;37.544;2024-03-23T05:39:07;22.63;;;9.20;;
74503;SDS011;62988;55.776;37.544;2024-03-23T05:41:32;17.73;;;8.10;;
74503;SDS011;62988;55.776;37.544;2024-03-23T05:43:58;20.13;;;8.13;;
74503;SDS011;62988;55.776;37.544;2024-03-23T05:46:23;16.47;;;7.27;;
74503;SDS011;62988;55.776;37.544;2024-03-23T05:48:50;16.57;;;8.33;;
74503;SDS011;62988;55.776;37.544;2024-03-23T05:51:15;15.77;;;8.57;;
74503;SDS011;62988;55.776;37.544;2024-03-23T05:53:41;17.50;;;8.43;;
74503;SDS011;62988;55.776;37.544;2024-03-23T05:56:07;17.50;;;8.40;;
74503;SDS011;62988;55.776;37.544;2024-03-23T05:58:32;12.33;;;5.87;;
74503;SDS011;62988;55.776;37.544;2024-03-23T06:00:58;17.88;;;9.38;;
74503;SDS011;62988;55.776;37.544;2024-03-23T06:03:25;13.93;;;6.40;;
74503;SDS011;62988;55.776;37.544;2024-03-23T06:05:51;16.77;;;8.10;;
74503;SDS011;62988;55.776;37.544;2024-03-23T06:08:16;13.32;;;7.95;;
74503;SDS011;62988;55.776;37.544;2024-03-23T06:10:41;20.27;;;7.77;;
74503;SDS011;62988;55.776;37.544;2024-03-23T06:13:06;17.60;;;7.73;;
74503;SDS011;62988;55.776;37.544;2024-03-23T06:15:33;14.73;;;7.32;;
74503;SDS011;62988;55.776;37.544;2024-03-23T06:18:02;16.45;;;7.03;;
74503;SDS011;62988;55.776;37.544;2024-03-23T06:20:29;15.13;;;6.80;;
74503;SDS011;62988;55.776;37.544;2024-03-23T06:22:54;17.93;;;8.73;;
74503;SDS011;62988;55.776;37.544;2024-03-23T06:25:19;17.10;;;7.57;;
74503;SDS011;62988;55.776;37.544;2024-03-23T06:27:44;16.10;;;8.37;;
74503;SDS011;62988;55.776;37.544;2024-03-23T06:30:10;18.58;;;8.27;;
74503;SDS011;62988;55.776;37.544;2024-03-23T06:32:35;16.27;;;6.15;;
74503;SDS011;62988;55.776;37.544;2024-03-23T06:35:01;16.30;;;7.03;;
74503;SDS011;62988;55.776;37.544;2024-03-23T06:37:32;16.70;;;6.72;;
74503;SDS011;62988;55.776;37.544;2024-03-23T06:39:58;16.20;;;7.13;;
74503;SDS011;62988;55.776;37.544;2024-03-23T06:42:23;13.18;;;6.82;;
74503;SDS011;62988;55.776;37.544;2024-03-23T06:44:48;11.53;;;6.23;;
74503;SDS011;62988;55.776;37.544;2024-03-23T06:47:14;16.87;;;7.70;;
74503;SDS011;62988;55.776;37.544;2024-03-23T06:49:39;19.50;;;7.03;;
74503;SDS011;62988;55.776;37.544;2024-03-23T06:52:04;12.47;;;6.20;;
74503;SDS011;62988;55.776;37.544;2024-03-23T06:54:30;12.10;;;6.57;;
74503;SDS011;62988;55.776;37.544;2024-03-23T06:56:55;17.53;;;6.77;;
74503;SDS011;62988;55.776;37.544;2024-03-23T06:59:20;19.07;;;7.60;;
74503;SDS011;62988;55.776;37.544;2024-03-23T07:01:46;13.17;;;5.83;;
74503;SDS011;62988;55.776;37.544;2024-03-23T07:04:11;15.53;;;5.60;;
74503;SDS011;62988;55.776;37.544;2024-03-23T07:06:42;22.87;;;7.90;;
74503;SDS011;62988;55.776;37.544;2024-03-23T07:09:07;14.05;;;7.13;;
74503;SDS011;62988;55.776;37.544;2024-03-23T07:11:32;17.57;;;7.00;;
74503;SDS011;62988;55.776;37.544;2024-03-23T07:13:58;16.17;;;7.03;;
74503;SDS011;62988;55.776;37.544;2024-03-23T07:16:23;11.13;;;5.60;;
74503;SDS011;62988;55.776;37.544;2024-03-23T07:18:50;12.03;;;6.47;;
74503;SDS011;62988;55.776;37.544;2024-03-23T07:21:15;10.32;;;5.60;;
74503;SDS011;62988;55.776;37.544;2024-03-23T07:23:43;10.37;;;5.67;;
74503;SDS011;62988;55.776;37.544;2024-03-23T07:26:12;10.40;;;5.25;;
74503;SDS011;62988;55.776;37.544;2024-03-23T07:28:37;11.13;;;6.28;;
74503;SDS011;62988;55.776;37.544;2024-03-23T07:31:10;9.65;;;5.43;;
74503;SDS011;62988;55.776;37.544;2024-03-23T07:33:36;13.02;;;6.68;;
74503;SDS011;62988;55.776;37.544;2024-03-23T07:36:01;13.13;;;5.43;;
74503;SDS011;62988;55.776;37.544;2024-03-23T07:38:27;15.18;;;7.65;;
74503;SDS011;62988;55.776;37.544;2024-03-23T07:41:02;11.15;;;5.88;;
74503;SDS011;62988;55.776;37.544;2024-03-23T07:43:28;14.50;;;6.18;;
74503;SDS011;62988;55.776;37.544;2024-03-23T07:45:53;13.63;;;6.45;;
74503;SDS011;62988;55.776;37.544;2024-03-23T07:48:18;12.73;;;6.72;;
74503;SDS011;62988;55.776;37.544;2024-03-23T07:50:44;13.67;;;6.80;;
74503;SDS011;62988;55.776;37.544;2024-03-23T07:53:09;9.50;;;4.43;;
74503;SDS011;62988;55.776;37.544;2024-03-23T07:55:34;10.37;;;4.90;;
74503;SDS011;62988;55.776;37.544;2024-03-23T07:58:00;10.43;;;4.97;;
74503;SDS011;62988;55.776;37.544;2024-03-23T08:00:25;8.77;;;5.13;;
74503;SDS011;62988;55.776;37.544;2024-03-23T08:02:51;11.07;;;5.07;;
74503;SDS011;62988;55.776;37.544;2024-03-23T08:05:16;9.90;;;5.53;;
74503;SDS011;62988;55.776;37.544;2024-03-23T08:07:41;9.07;;;5.60;;
74503;SDS011;62988;55.776;37.544;2024-03-23T08:10:07;9.07;;;4.87;;
74503;SDS011;62988;55.776;37.544;2024-03-23T08:12:32;11.77;;;5.20;;
74503;SDS011;62988;55.776;37.544;2024-03-23T08:14:57;5.70;;;2.90;;
74503;SDS011;62988;55.776;37.544;2024-03-23T08:17:22;10.87;;;5.87;;
74503;SDS011;62988;55.776;37.544;2024-03-23T08:19:48;12.97;;;5.70;;
74503;SDS011;62988;55.776;37.544;2024-03-23T08:22:13;11.47;;;5.20;;
74503;SDS011;62988;55.776;37.544;2024-03-23T08:24:38;8.53;;;4.47;;
74503;SDS011;62988;55.776;37.544;2024-03-23T08:27:04;11.13;;;5.63;;
74503;SDS011;62988;55.776;37.544;2024-03-23T08:29:30;8.48;;;4.63;;
74503;SDS011;62988;55.776;37.544;2024-03-23T08:31:55;13.48;;;5.30;;
74503;SDS011;62988;55.776;37.544;2024-03-23T08:34:20;11.23;;;5.73;;
74503;SDS011;62988;55.776;37.544;2024-03-23T08:36:45;10.37;;;5.37;;
74503;SDS011;62988;55.776;37.544;2024-03-23T08:39:11;8.60;;;3.83;;
74503;SDS011;62988;55.776;37.544;2024-03-23T08:41:36;9.75;;;5.50;;
74503;SDS011;62988;55.776;37.544;2024-03-23T08:44:01;10.30;;;5.30;;
74503;SDS011;62988;55.776;37.544;2024-03-23T08:46:27;10.30;;;5.30;;
74503;SDS011;62988;55.776;37.544;2024-03-23T08:48:52;9.50;;;4.95;;
74503;SDS011;62988;55.776;37.544;2024-03-23T08:51:18;9.77;;;5.70;;
74503;SDS011;62988;55.776;37.544;2024-03-23T08:53:43;9.32;;;4.88;;
74503;SDS011;62988;55.776;37.544;2024-03-23T08:56:09;7.22;;;3.65;;
74503;SDS011;62988;55.776;37.544;2024-03-23T08:58:35;10.25;;;5.50;;
74503;SDS011;62988;55.776;37.544;2024-03-23T09:01:07;8.88;;;4.32;;
74503;SDS011;62988;55.776;37.544;2024-03-23T09:03:32;8.63;;;5.30;;
74503;SDS011;62988;55.776;37.544;2024-03-23T09:05:57;10.63;;;5.83;;
74503;SDS011;62988;55.776;37.544;2024-03-23T09:08:24;11.13;;;6.15;;
74503;SDS011;62988;55.776;37.544;2024-03-23T09:10:49;17.45;;;7.10;;
74503;SDS011;62988;55.776;37.544;2024-03-23T09:13:14;10.33;;;5.83;;
74503;SDS011;62988;55.776;37.544;2024-03-23T09:15:48;10.68;;;5.43;;
74503;SDS011;62988;55.776;37.544;2024-03-23T09:18:13;10.73;;;6.45;;
74503;SDS011;62988;55.776;37.544;2024-03-23T09:20:39;9.60;;;5.47;;
74503;SDS011;62988;55.776;37.544;2024-03-23T09:23:04;10.87;;;6.07;;
74503;SDS011;62988;55.776;37.544;2024-03-23T09:25:30;8.30;;;4.87;;
74503;SDS011;62988;55.776;37.544;2024-03-23T09:27:55;11.80;;;6.10;;
74503;SDS011;62988;55.776;37.544;2024-03-23T09:30:20;14.80;;;6.63;;
74503;SDS011;62988;55.776;37.544;2024-03-23T09:32:46;12.38;;;6.63;;
74503;SDS011;62988;55.776;37.544;2024-03-23T09:35:11;8.90;;;5.50;;
74503;SDS011;62988;55.776;37.544;2024-03-23T09:37:37;11.48;;;6.07;;
74503;SDS011;62988;55.776;37.544;2024-03-23T09:40:05;17.08;;;6.20;;
74503;SDS011;62988;55.776;37.544;2024-03-23T09:42:32;11.57;;;7.03;;
74503;SDS011;62988;55.776;37.544;2024-03-23T09:44:57;12.50;;;5.80;;
74503;SDS011;62988;55.776;37.544;2024-03-23T09:47:24;11.20;;;6.00;;
74503;SDS011;62988;55.776;37.544;2024-03-23T09:49:50;14.00;;;5.90;;
74503;SDS011;62988;55.776;37.544;2024-03-23T09:52:15;8.87;;;5.33;;
74503;SDS011;62988;55.776;37.544;2024-03-23T09:54:40;12.53;;;6.23;;
74503;SDS011;62988;55.776;37.544;2024-03-23T09:57:06;10.37;;;6.33;;
74503;SDS011;62988;55.776;37.544;2024-03-23T09:59:32;13.07;;;5.80;;
74503;SDS011;62988;55.776;37.544;2024-03-23T10:01:57;11.70;;;6.00;;
74503;SDS011;62988;55.776;37.544;2024-03-23T10:04:36;12.13;;;6.93;;
74503;SDS011;62988;55.776;37.544;2024-03-23T10:07:11;11.90;;;6.25;;
74503;SDS011;62988;55.776;37.544;2024-03-23T10:09:36;10.35;;;5.55;;
74503;SDS011;62988;55.776;37.544;2024-03-23T10:12:08;10.53;;;5.73;;
74503;SDS011;62988;55.776;37.544;2024-03-23T10:14:34;11.43;;;5.97;;
74503;SDS011;62988;55.776;37.544;2024-03-23T10:17:11;10.03;;;5.40;;
74503;SDS011;62988;55.776;37.544;2024-03-23T10:19:38;10.77;;;5.32;;
74503;SDS011;62988;55.776;37.544;2024-03-23T10:22:04;12.43;;;5.82;;
74503;SDS011;62988;55.776;37.544;2024-03-23T10:24:29;11.70;;;6.03;;
74503;SDS011;62988;55.776;37.544;2024-03-23T10:26:57;8.07;;;4.13;;
74503;SDS011;62988;55.776;37.544;2024-03-23T10:29:23;10.50;;;5.18;;
74503;SDS011;62988;55.776;37.544;2024-03-23T10:31:48;11.40;;;5.73;;
74503;SDS011;62988;55.776;37.544;2024-03-23T10:34:14;10.65;;;5.20;;
74503;SDS011;62988;55.776;37.544;2024-03-23T10:36:40;12.60;;;5.60;;
74503;SDS011;62988;55.776;37.544;2024-03-23T10:39:06;10.15;;;5.63;;
74503;SDS011;62988;55.776;37.544;2024-03-23T10:41:32;10.93;;;6.32;;
74503;SDS011;62988;55.776;37.544;2024-03-23T10:43:58;10.23;;;5.60;;
74503;SDS011;62988;55.776;37.544;2024-03-23T10:46:23;9.05;;;5.00;;
74503;SDS011;62988;55.776;37.544;2024-03-23T10:48:48;9.13;;;5.40;;
74503;SDS011;62988;55.776;37.544;2024-03-23T10:51:14;10.07;;;5.18;;
74503;SDS011;62988;55.776;37.544;2024-03-23T10:53:39;8.30;;;4.63;;
74503;SDS011;62988;55.776;37.544;2024-03-23T10:56:05;9.40;;;5.40;;
74503;SDS011;62988;55.776;37.544;2024-03-23T10:58:31;12.18;;;5.38;;
74503;SDS011;62988;55.776;37.544;2024-03-23T11:00:58;10.35;;;5.65;;
74503;SDS011;62988;55.776;37.544;2024-03-23T11:03:36;8.47;;;4.93;;
74503;SDS011;62988;55.776;37.544;2024-03-23T11:06:02;10.93;;;5.32;;
74503;SDS011;62988;55.776;37.544;2024-03-23T11:08:37;11.70;;;5.97;;
74503;SDS011;62988;55.776;37.544;2024-03-23T11:13:48;11.52;;;6.07;;
74503;SDS011;62988;55.776;37.544;2024-03-23T11:16:14;12.23;;;5.63;;
74503;SDS011;62988;55.776;37.544;2024-03-23T11:18:39;11.10;;;5.65;;
74503;SDS011;62988;55.776;37.544;2024-03-23T11:21:06;11.43;;;6.00;;
74503;SDS011;62988;55.776;37.544;2024-03-23T11:23:31;9.35;;;5.30;;
74503;SDS011;62988;55.776;37.544;2024-03-23T11:25:57;12.10;;;5.87;;
74503;SDS011;62988;55.776;37.544;2024-03-23T11:28:22;9.13;;;5.33;;
74503;SDS011;62988;55.776;37.544;2024-03-23T11:30:47;11.17;;;4.77;;
74503;SDS011;62988;55.776;37.544;2024-03-23T11:33:13;11.77;;;6.15;;
74503;SDS011;62988;55.776;37.544;2024-03-23T11:35:39;13.13;;;5.60;;
74503;SDS011;62988;55.776;37.544;2024-03-23T11:40:33;11.63;;;5.73;;
74503;SDS011;62988;55.776;37.544;2024-03-23T11:42:59;11.30;;;5.70;;
74503;SDS011;62988;55.776;37.544;2024-03-23T11:45:25;11.00;;;5.65;;
74503;SDS011;62988;55.776;37.544;2024-03-23T11:48:03;11.77;;;5.90;;
74503;SDS011;62988;55.776;37.544;2024-03-23T11:50:28;10.93;;;5.70;;
74503;SDS011;62988;55.776;37.544;2024-03-23T11:53:05;10.90;;;5.63;;
74503;SDS011;62988;55.776;37.544;2024-03-23T11:55:38;12.80;;;6.55;;
74503;SDS011;62988;55.776;37.544;2024-03-23T11:58:03;14.07;;;6.57;;
74503;SDS011;62988;55.776;37.544;2024-03-23T12:00:28;11.97;;;6.63;;
74503;SDS011;62988;55.776;37.544;2024-03-23T12:02:59;14.90;;;6.93;;
74503;SDS011;62988;55.776;37.544;2024-03-23T12:05:25;11.27;;;7.15;;
74503;SDS011;62988;55.776;37.544;2024-03-23T12:07:51;13.45;;;6.13;;
74503;SDS011;62988;55.776;37.544;2024-03-23T12:10:16;11.90;;;7.07;;
74503;SDS011;62988;55.776;37.544;2024-03-23T12:12:44;12.07;;;6.93;;
74503;SDS011;62988;55.776;37.544;2024-03-23T12:15:09;9.13;;;4.97;;
74503;SDS011;62988;55.776;37.544;2024-03-23T12:17:34;10.45;;;5.88;;
74503;SDS011;62988;55.776;37.544;2024-03-23T12:20:00;14.13;;;6.50;;
74503;SDS011;62988;55.776;37.544;2024-03-23T12:22:26;13.15;;;6.07;;
74503;SDS011;62988;55.776;37.544;2024-03-23T12:24:52;13.85;;;6.07;;
74503;SDS011;62988;55.776;37.544;2024-03-23T12:27:17;13.77;;;6.25;;
74503;SDS011;62988;55.776;37.544;2024-03-23T12:29:42;13.30;;;6.00;;
74503;SDS011;62988;55.776;37.544;2024-03-23T12:32:12;11.52;;;6.28;;
74503;SDS011;62988;55.776;37.544;2024-03-23T12:34:37;12.55;;;6.60;;
74503;SDS011;62988;55.776;37.544;2024-03-23T12:37:03;12.20;;;7.05;;
74503;SDS011;62988;55.776;37.544;2024-03-23T12:39:28;11.23;;;5.72;;
74503;SDS011;62988;55.776;37.544;2024-03-23T12:41:53;12.70;;;7.43;;
74503;SDS011;62988;55.776;37.544;2024-03-23T12:44:19;14.10;;;7.47;;
74503;SDS011;62988;55.776;37.544;2024-03-23T12:46:44;13.60;;;6.20;;
74503;SDS011;62988;55.776;37.544;2024-03-23T12:49:10;12.87;;;6.97;;
74503;SDS011;62988;55.776;37.544;2024-03-23T12:51:35;15.25;;;7.30;;
74503;SDS011;62988;55.776;37.544;2024-03-23T12:54:01;13.10;;;7.18;;
74503;SDS011;62988;55.776;37.544;2024-03-23T12:56:26;15.07;;;6.80;;
74503;SDS011;62988;55.776;37.544;2024-03-23T12:58:53;12.38;;;6.47;;
74503;SDS011;62988;55.776;37.544;2024-03-23T13:01:20;15.35;;;7.53;;
74503;SDS011;62988;55.776;37.544;2024-03-23T13:03:48;13.43;;;6.93;;
74503;SDS011;62988;55.776;37.544;2024-03-23T13:06:14;14.13;;;6.95;;
74503;SDS011;62988;55.776;37.544;2024-03-23T13:08:39;14.85;;;7.68;;
74503;SDS011;62988;55.776;37.544;2024-03-23T13:11:08;11.70;;;6.65;;
74503;SDS011;62988;55.776;37.544;2024-03-23T13:13:36;15.15;;;7.50;;
74503;SDS011;62988;55.776;37.544;2024-03-23T13:16:02;14.18;;;7.38;;
74503;SDS011;62988;55.776;37.544;2024-03-23T13:18:30;16.90;;;7.95;;
74503;SDS011;62988;55.776;37.544;2024-03-23T13:20:56;13.23;;;7.47;;
74503;SDS011;62988;55.776;37.544;2024-03-23T13:23:21;16.57;;;7.07;;
74503;SDS011;62988;55.776;37.544;2024-03-23T13:25:50;15.73;;;7.97;;
74503;SDS011;62988;55.776;37.544;2024-03-23T13:28:15;12.70;;;6.75;;
74503;SDS011;62988;55.776;37.544;2024-03-23T13:30:49;14.95;;;7.53;;
74503;SDS011;62988;55.776;37.544;2024-03-23T13:33:14;16.45;;;7.75;;
74503;SDS011;62988;55.776;37.544;2024-03-23T13:35:39;12.33;;;6.67;;
74503;SDS011;62988;55.776;37.544;2024-03-23T13:38:05;17.33;;;6.80;;
74503;SDS011;62988;55.776;37.544;2024-03-23T13:40:30;15.07;;;7.53;;
74503;SDS011;62988;55.776;37.544;2024-03-23T13:42:55;14.37;;;7.33;;
74503;SDS011;62988;55.776;37.544;2024-03-23T13:45:21;12.50;;;6.50;;
74503;SDS011;62988;55.776;37.544;2024-03-23T13:47:46;11.85;;;5.10;;
74503;SDS011;62988;55.776;37.544;2024-03-23T13:50:11;12.80;;;6.00;;
74503;SDS011;62988;55.776;37.544;2024-03-23T13:52:37;13.18;;;6.57;;
74503;SDS011;62988;55.776;37.544;2024-03-23T13:55:03;15.70;;;6.03;;
74503;SDS011;62988;55.776;37.544;2024-03-23T13:57:28;15.07;;;6.13;;
74503;SDS011;62988;55.776;37.544;2024-03-23T13:59:54;10.03;;;5.60;;
74503;SDS011;62988;55.776;37.544;2024-03-23T14:02:19;13.27;;;6.23;;
74503;SDS011;62988;55.776;37.544;2024-03-23T14:04:44;14.35;;;7.00;;
74503;SDS011;62988;55.776;37.544;2024-03-23T14:07:10;12.80;;;6.77;;
74503;SDS011;62988;55.776;37.544;2024-03-23T14:09:35;10.95;;;5.68;;
74503;SDS011;62988;55.776;37.544;2024-03-23T14:12:00;11.80;;;6.53;;
74503;SDS011;62988;55.776;37.544;2024-03-23T14:14:26;10.70;;;5.37;;
74503;SDS011;62988;55.776;37.544;2024-03-23T14:16:51;12.93;;;6.00;;
74503;SDS011;62988;55.776;37.544;2024-03-23T14:19:16;10.43;;;5.60;;
74503;SDS011;62988;55.776;37.544;2024-03-23T14:21:42;12.17;;;5.77;;
74503;SDS011;62988;55.776;37.544;2024-03-23T14:24:07;13.97;;;5.03;;
74503;SDS011;62988;55.776;37.544;2024-03-23T14:26:34;9.82;;;4.75;;
74503;SDS011;62988;55.776;37.544;2024-03-23T14:29:00;11.73;;;5.93;;
74503;SDS011;62988;55.776;37.544;2024-03-23T14:31:25;9.80;;;4.77;;
74503;SDS011;62988;55.776;37.544;2024-03-23T14:33:51;8.23;;;4.40;;
74503;SDS011;62988;55.776;37.544;2024-03-23T14:36:16;7.70;;;4.07;;
74503;SDS011;62988;55.776;37.544;2024-03-23T14:38:42;9.23;;;4.90;;
74503;SDS011;62988;55.776;37.544;2024-03-23T14:41:11;9.32;;;5.22;;
74503;SDS011;62988;55.776;37.544;2024-03-23T14:43:37;8.73;;;5.10;;
74503;SDS011;62988;55.776;37.544;2024-03-23T14:46:06;12.90;;;5.27;;
74503;SDS011;62988;55.776;37.544;2024-03-23T14:48:32;7.38;;;3.72;;
74503;SDS011;62988;55.776;37.544;2024-03-23T14:50:57;10.02;;;4.68;;
74503;SDS011;62988;55.776;37.544;2024-03-23T14:53:24;8.65;;;4.53;;
74503;SDS011;62988;55.776;37.544;2024-03-23T14:55:50;11.25;;;5.28;;
74503;SDS011;62988;55.776;37.544;2024-03-23T14:58:15;7.50;;;4.70;;
74503;SDS011;62988;55.776;37.544;2024-03-23T15:00:41;9.60;;;4.97;;
74503;SDS011;62988;55.776;37.544;2024-03-23T15:03:06;8.97;;;4.77;;
74503;SDS011;62988;55.776;37.544;2024-03-23T15:05:31;7.87;;;4.07;;
74503;SDS011;62988;55.776;37.544;2024-03-23T15:07:56;8.90;;;4.90;;
74503;SDS011;62988;55.776;37.544;2024-03-23T15:10:23;9.20;;;4.60;;
74503;SDS011;62988;55.776;37.544;2024-03-23T15:12:48;12.02;;;4.95;;